createdAt,value
2019-04-29T00:00:34.796Z,0.00
2019-04-29T00:01:34.772Z,0.00
2019-04-29T00:02:34.760Z,0.00
2019-04-29T00:03:34.749Z,0.00
2019-04-29T00:04:34.752Z,0.00
2019-04-29T00:05:34.724Z,0.00
2019-04-29T00:06:34.717Z,0.00
2019-04-29T00:07:34.720Z,0.00
2019-04-29T00:08:34.728Z,0.00
2019-04-29T00:09:34.708Z,0.00
2019-04-29T00:10:34.668Z,0.00
2019-04-29T00:11:34.664Z,0.00
2019-04-29T00:12:34.652Z,0.00
2019-04-29T00:13:34.662Z,0.00
2019-04-29T00:14:34.628Z,0.00
2019-04-29T00:15:34.632Z,0.00
2019-04-29T00:16:34.604Z,0.00
2019-04-29T00:17:34.588Z,0.00
2019-04-29T00:18:34.584Z,0.00
2019-04-29T00:19:36.189Z,0.00
2019-04-29T00:20:34.564Z,0.00
2019-04-29T00:21:34.544Z,0.00
2019-04-29T00:22:34.536Z,0.00
2019-04-29T00:23:34.524Z,0.00
2019-04-29T00:24:34.533Z,0.00
2019-04-29T00:25:34.516Z,0.00
2019-04-29T00:26:34.532Z,0.00
2019-04-29T00:27:34.484Z,0.00
2019-04-29T00:28:34.496Z,0.00
2019-04-29T00:29:34.457Z,0.00
2019-04-29T00:30:34.470Z,0.00
2019-04-29T00:31:34.444Z,0.00
2019-04-29T00:32:34.424Z,0.00
2019-04-29T00:33:34.432Z,0.00
2019-04-29T00:34:34.416Z,0.00
2019-04-29T00:35:34.392Z,0.00
2019-04-29T00:36:34.380Z,0.00
2019-04-29T00:37:34.440Z,0.00
2019-04-29T00:38:34.364Z,0.00
2019-04-29T00:39:34.348Z,0.00
2019-04-29T00:40:34.392Z,0.00
2019-04-29T00:41:34.324Z,0.00
2019-04-29T00:42:34.377Z,0.00
2019-04-29T00:43:34.314Z,0.00
2019-04-29T00:44:34.300Z,0.00
2019-04-29T00:45:34.276Z,0.00
2019-04-29T00:46:34.284Z,0.00
2019-04-29T00:47:34.260Z,0.00
2019-04-29T00:48:34.268Z,0.00
2019-04-29T00:49:34.280Z,0.00
2019-04-29T00:50:34.220Z,0.00
2019-04-29T00:51:34.212Z,0.00
2019-04-29T00:52:34.202Z,0.00
2019-04-29T00:53:34.200Z,0.00
2019-04-29T00:54:34.206Z,0.00
2019-04-29T00:55:34.185Z,0.00
2019-04-29T00:56:34.174Z,0.00
2019-04-29T00:57:34.161Z,0.00
2019-04-29T00:58:34.132Z,0.00
2019-04-29T00:59:34.152Z,0.00
2019-04-29T01:00:34.120Z,0.00
2019-04-29T01:01:34.101Z,0.00
2019-04-29T01:02:34.090Z,0.00
2019-04-29T01:03:34.076Z,0.00
2019-04-29T01:04:34.128Z,0.00
2019-04-29T01:05:34.085Z,0.00
2019-04-29T01:06:34.072Z,0.00
2019-04-29T01:07:34.046Z,0.00
2019-04-29T01:08:34.024Z,0.00
2019-04-29T01:09:34.016Z,0.00
2019-04-29T01:10:34.004Z,0.00
2019-04-29T01:11:34.028Z,0.00
2019-04-29T01:12:33.972Z,0.00
2019-04-29T01:13:33.964Z,0.00
2019-04-29T01:14:33.956Z,0.00
2019-04-29T01:15:33.944Z,0.00
2019-04-29T01:16:33.940Z,0.00
2019-04-29T01:17:33.932Z,0.00
2019-04-29T01:18:33.920Z,0.00
2019-04-29T01:19:33.900Z,0.00
2019-04-29T01:20:33.880Z,0.00
2019-04-29T01:21:33.876Z,0.00
2019-04-29T01:22:33.898Z,0.00
2019-04-29T01:23:33.872Z,0.00
2019-04-29T01:24:33.844Z,0.00
2019-04-29T01:25:33.826Z,0.00
2019-04-29T01:26:33.820Z,0.00
2019-04-29T01:27:33.806Z,0.00
2019-04-29T01:28:33.804Z,0.00
2019-04-29T01:29:33.780Z,0.00
2019-04-29T01:30:33.780Z,0.00
2019-04-29T01:31:33.768Z,0.00
2019-04-29T01:32:33.780Z,0.00
2019-04-29T01:33:33.763Z,0.00
2019-04-29T01:34:33.735Z,0.00
2019-04-29T01:35:33.716Z,0.00
2019-04-29T01:36:33.708Z,0.00
2019-04-29T01:37:33.696Z,0.00
2019-04-29T01:38:33.688Z,0.00
2019-04-29T01:39:33.688Z,0.00
2019-04-29T01:40:33.658Z,0.00
2019-04-29T01:41:33.648Z,0.00
2019-04-29T01:42:33.651Z,0.00
2019-04-29T01:43:33.628Z,0.00
2019-04-29T01:44:33.629Z,0.00
2019-04-29T01:45:33.656Z,0.00
2019-04-29T01:46:33.597Z,0.00
2019-04-29T01:47:33.588Z,0.00
2019-04-29T01:48:33.580Z,0.00
2019-04-29T01:49:33.556Z,0.00
2019-04-29T01:50:33.576Z,0.00
2019-04-29T01:51:33.560Z,0.00
2019-04-29T01:52:33.531Z,0.00
2019-04-29T01:53:33.545Z,0.00
2019-04-29T01:54:33.505Z,0.00
2019-04-29T01:55:33.504Z,0.00
2019-04-29T01:56:33.488Z,0.00
2019-04-29T01:57:33.532Z,0.00
2019-04-29T01:58:33.468Z,0.00
2019-04-29T01:59:33.448Z,0.00
2019-04-29T02:00:33.448Z,0.00
2019-04-29T02:01:33.429Z,0.00
2019-04-29T02:02:33.440Z,0.00
2019-04-29T02:03:33.417Z,0.00
2019-04-29T02:04:33.393Z,0.00
2019-04-29T02:05:33.388Z,0.00
2019-04-29T02:06:33.368Z,0.00
2019-04-29T02:07:33.359Z,0.00
2019-04-29T02:08:33.370Z,0.00
2019-04-29T02:09:33.332Z,0.00
2019-04-29T02:10:33.338Z,0.00
2019-04-29T02:11:33.311Z,0.00
2019-04-29T02:12:33.303Z,0.00
2019-04-29T02:13:33.313Z,0.00
2019-04-29T02:14:33.295Z,0.00
2019-04-29T02:15:33.263Z,0.00
2019-04-29T02:16:33.253Z,0.00
2019-04-29T02:17:33.248Z,0.00
2019-04-29T02:18:33.231Z,0.00
2019-04-29T02:19:33.243Z,0.00
2019-04-29T02:20:33.211Z,0.00
2019-04-29T02:21:33.204Z,0.00
2019-04-29T02:22:33.191Z,0.00
2019-04-29T02:23:33.180Z,0.00
2019-04-29T02:24:33.172Z,0.00
2019-04-29T02:25:33.256Z,0.00
2019-04-29T02:26:33.140Z,0.00
2019-04-29T02:27:33.136Z,0.00
2019-04-29T02:28:33.135Z,0.00
2019-04-29T02:29:33.112Z,0.00
2019-04-29T02:30:33.154Z,0.00
2019-04-29T02:31:33.119Z,0.00
2019-04-29T02:32:33.104Z,0.00
2019-04-29T02:33:33.065Z,0.00
2019-04-29T02:34:33.056Z,0.00
2019-04-29T02:35:33.040Z,0.00
2019-04-29T02:36:33.057Z,0.00
2019-04-29T02:37:33.023Z,0.00
2019-04-29T02:38:33.009Z,0.00
2019-04-29T02:39:33.005Z,0.00
2019-04-29T02:40:33.011Z,0.00
2019-04-29T02:41:32.972Z,0.00
2019-04-29T02:42:32.984Z,0.00
2019-04-29T02:43:32.980Z,0.00
2019-04-29T02:44:32.940Z,0.00
2019-04-29T02:45:32.936Z,0.00
2019-04-29T02:46:32.925Z,0.00
2019-04-29T02:47:32.922Z,0.00
2019-04-29T02:48:34.575Z,0.00
2019-04-29T02:49:32.888Z,0.00
2019-04-29T02:50:32.884Z,0.00
2019-04-29T02:51:32.869Z,0.00
2019-04-29T02:52:32.858Z,0.00
2019-04-29T02:53:32.850Z,0.00
2019-04-29T02:54:32.868Z,0.00
2019-04-29T02:55:32.863Z,0.00
2019-04-29T02:56:32.809Z,0.00
2019-04-29T02:57:32.803Z,0.00
2019-04-29T02:58:32.885Z,0.00
2019-04-29T02:59:32.796Z,0.00
2019-04-29T03:00:32.760Z,0.00
2019-04-29T03:01:32.772Z,0.00
2019-04-29T03:02:32.836Z,0.00
2019-04-29T03:03:32.745Z,0.00
2019-04-29T03:04:32.733Z,0.00
2019-04-29T03:05:32.715Z,0.00
2019-04-29T03:06:32.713Z,0.00
2019-04-29T03:07:32.727Z,0.00
2019-04-29T03:08:32.672Z,0.00
2019-04-29T03:09:32.671Z,0.00
2019-04-29T03:10:32.657Z,0.00
2019-04-29T03:11:32.660Z,0.00
2019-04-29T03:12:32.632Z,0.00
2019-04-29T03:13:32.637Z,0.00
2019-04-29T03:14:32.615Z,0.00
2019-04-29T03:15:32.603Z,0.00
2019-04-29T03:16:32.600Z,0.00
2019-04-29T03:17:32.585Z,0.00
2019-04-29T03:18:32.581Z,0.00
2019-04-29T03:19:32.553Z,0.00
2019-04-29T03:20:32.557Z,0.00
2019-04-29T03:21:32.529Z,0.00
2019-04-29T03:22:32.528Z,0.00
2019-04-29T03:23:32.508Z,0.00
2019-04-29T03:24:32.530Z,0.00
2019-04-29T03:25:32.485Z,0.00
2019-04-29T03:26:32.601Z,0.00
2019-04-29T03:27:32.463Z,0.00
2019-04-29T03:28:32.463Z,0.00
2019-04-29T03:29:32.486Z,0.00
2019-04-29T03:30:32.435Z,0.00
2019-04-29T03:31:38.669Z,0.00
2019-04-29T03:32:33.445Z,0.00
2019-04-29T03:33:32.405Z,4.00
2019-04-29T03:34:32.400Z,4.00
2019-04-29T03:35:32.388Z,4.00
2019-04-29T03:36:32.368Z,0.00
2019-04-29T03:37:32.383Z,4.00
2019-04-29T03:38:32.335Z,4.00
2019-04-29T03:39:32.342Z,8.00
2019-04-29T03:40:32.321Z,4.00
2019-04-29T03:41:32.320Z,8.00
2019-04-29T03:42:32.292Z,8.00
2019-04-29T03:43:32.331Z,8.00
2019-04-29T03:44:32.268Z,8.00
2019-04-29T03:45:32.260Z,12.00
2019-04-29T03:46:32.251Z,12.00
2019-04-29T03:47:32.246Z,16.00
2019-04-29T03:48:32.251Z,16.00
2019-04-29T03:49:32.237Z,20.00
2019-04-29T03:50:32.204Z,24.00
2019-04-29T03:51:32.200Z,28.00
2019-04-29T03:52:32.196Z,28.00
2019-04-29T03:53:32.168Z,36.00
2019-04-29T03:54:32.160Z,36.00
2019-04-29T03:55:39.756Z,40.00
2019-04-29T03:56:33.136Z,44.00
2019-04-29T03:57:32.123Z,52.00
2019-04-29T03:58:32.115Z,56.00
2019-04-29T03:59:32.100Z,64.00
2019-04-29T04:00:32.109Z,68.00
2019-04-29T04:01:32.082Z,80.00
2019-04-29T04:02:32.077Z,88.00
2019-04-29T04:03:32.061Z,92.00
2019-04-29T04:04:32.120Z,104.00
2019-04-29T04:05:32.047Z,108.00
2019-04-29T04:06:32.055Z,120.00
2019-04-29T04:07:32.022Z,128.00
2019-04-29T04:08:32.019Z,140.00
2019-04-29T04:09:31.993Z,152.00
2019-04-29T04:10:31.986Z,160.00
2019-04-29T04:11:31.976Z,172.00
2019-04-29T04:12:32.051Z,184.00
2019-04-29T04:13:31.953Z,192.00
2019-04-29T04:14:31.935Z,208.00
2019-04-29T04:15:31.932Z,224.00
2019-04-29T04:16:31.920Z,236.00
2019-04-29T04:17:31.911Z,248.00
2019-04-29T04:18:31.923Z,260.00
2019-04-29T04:19:31.888Z,276.00
2019-04-29T04:20:31.872Z,288.00
2019-04-29T04:21:31.859Z,304.00
2019-04-29T04:22:31.844Z,320.00
2019-04-29T04:23:31.832Z,332.00
2019-04-29T04:24:31.837Z,352.00
2019-04-29T04:25:31.816Z,364.00
2019-04-29T04:26:31.824Z,376.00
2019-04-29T04:27:31.800Z,388.00
2019-04-29T04:28:31.781Z,396.00
2019-04-29T04:29:31.788Z,408.00
2019-04-29T04:30:31.756Z,412.00
2019-04-29T04:31:31.748Z,416.00
2019-04-29T04:32:31.754Z,416.00
2019-04-29T04:33:31.727Z,428.00
2019-04-29T04:34:31.711Z,444.00
2019-04-29T04:35:31.720Z,464.00
2019-04-29T04:36:31.712Z,472.00
2019-04-29T04:37:31.676Z,476.00
2019-04-29T04:38:31.691Z,496.00
2019-04-29T04:39:31.682Z,508.00
2019-04-29T04:40:31.663Z,532.00
2019-04-29T04:41:31.652Z,548.00
2019-04-29T04:42:31.621Z,560.00
2019-04-29T04:43:31.609Z,580.00
2019-04-29T04:44:31.669Z,604.00
2019-04-29T04:45:31.596Z,616.00
2019-04-29T04:46:31.599Z,644.00
2019-04-29T04:47:31.579Z,664.00
2019-04-29T04:48:31.559Z,692.00
2019-04-29T04:49:31.575Z,720.00
2019-04-29T04:50:31.600Z,756.00
2019-04-29T04:51:31.523Z,780.00
2019-04-29T04:52:31.508Z,816.00
2019-04-29T04:53:31.512Z,864.00
2019-04-29T04:54:31.707Z,912.00
2019-04-29T04:55:31.509Z,944.00
2019-04-29T04:56:31.463Z,980.00
2019-04-29T04:57:31.460Z,1016.00
2019-04-29T04:58:31.527Z,1040.00
2019-04-29T04:59:31.463Z,1068.00
2019-04-29T05:00:31.419Z,1092.00
2019-04-29T05:01:31.411Z,1120.00
2019-04-29T05:02:31.410Z,1140.00
2019-04-29T05:03:31.392Z,1164.00
2019-04-29T05:04:31.386Z,1164.00
2019-04-29T05:05:31.375Z,1160.00
2019-04-29T05:06:31.367Z,1160.00
2019-04-29T05:07:31.343Z,1176.00
2019-04-29T05:08:31.371Z,1192.00
2019-04-29T05:09:31.332Z,1216.00
2019-04-29T05:10:31.307Z,1252.00
2019-04-29T05:11:31.408Z,1296.00
2019-04-29T05:12:31.314Z,1356.00
2019-04-29T05:13:31.278Z,1408.00
2019-04-29T05:14:31.263Z,1452.00
2019-04-29T05:15:31.247Z,1476.00
2019-04-29T05:16:31.256Z,1488.00
2019-04-29T05:17:31.250Z,1512.00
2019-04-29T05:18:31.255Z,1520.00
2019-04-29T05:19:31.203Z,1544.00
2019-04-29T05:20:31.195Z,1564.00
2019-04-29T05:21:31.191Z,1572.00
2019-04-29T05:22:31.179Z,1588.00
2019-04-29T05:23:31.183Z,1620.00
2019-04-29T05:24:31.152Z,1644.00
2019-04-29T05:25:31.215Z,1664.00
2019-04-29T05:26:31.195Z,1688.00
2019-04-29T05:27:31.123Z,1724.00
2019-04-29T05:28:31.107Z,1776.00
2019-04-29T05:29:31.119Z,1820.00
2019-04-29T05:30:31.119Z,1852.00
2019-04-29T05:31:31.095Z,1900.00
2019-04-29T05:32:31.075Z,1936.00
2019-04-29T05:33:31.051Z,1972.00
2019-04-29T05:34:31.051Z,2004.00
2019-04-29T05:35:31.051Z,2064.00
2019-04-29T05:36:34.107Z,2076.00
2019-04-29T05:37:32.034Z,2100.00
2019-04-29T05:38:30.993Z,2136.00
2019-04-29T05:39:31.004Z,2180.00
2019-04-29T05:40:30.979Z,2256.00
2019-04-29T05:41:34.842Z,2332.00
2019-04-29T05:42:31.959Z,2384.00
2019-04-29T05:43:32.006Z,2416.00
2019-04-29T05:44:30.931Z,2440.00
2019-04-29T05:45:30.915Z,2440.00
2019-04-29T05:46:30.907Z,2456.00
2019-04-29T05:47:30.895Z,2468.00
2019-04-29T05:48:31.985Z,2472.00
2019-04-29T05:49:30.876Z,2476.00
2019-04-29T05:50:30.862Z,2480.00
2019-04-29T05:51:30.847Z,2504.00
2019-04-29T05:52:34.787Z,2540.00
2019-04-29T05:53:31.838Z,2596.00
2019-04-29T05:54:31.657Z,2656.00
2019-04-29T05:55:30.798Z,2728.00
2019-04-29T05:56:30.795Z,2808.00
2019-04-29T05:57:30.794Z,2884.00
2019-04-29T05:58:33.013Z,2952.00
2019-04-29T05:59:31.807Z,3016.00
2019-04-29T06:00:30.746Z,3072.00
2019-04-29T06:01:30.750Z,3116.00
2019-04-29T06:02:33.716Z,3152.00
2019-04-29T06:03:33.583Z,3216.00
2019-04-29T06:04:31.702Z,3288.00
2019-04-29T06:05:30.702Z,3372.00
2019-04-29T06:06:30.718Z,3456.00
2019-04-29T06:07:30.691Z,3540.00
2019-04-29T06:08:34.471Z,3608.00
2019-04-29T06:09:31.644Z,3672.00
2019-04-29T06:10:30.630Z,3720.00
2019-04-29T06:11:30.654Z,3760.00
2019-04-29T06:12:30.622Z,3776.00
2019-04-29T06:13:30.602Z,3736.00
2019-04-29T06:14:30.587Z,3684.00
2019-04-29T06:15:30.575Z,3624.00
2019-04-29T06:16:30.570Z,3560.00
2019-04-29T06:17:30.574Z,3496.00
2019-04-29T06:18:30.543Z,3428.00
2019-04-29T06:19:30.538Z,3356.00
2019-04-29T06:20:30.526Z,3288.00
2019-04-29T06:21:30.538Z,3228.00
2019-04-29T06:22:30.502Z,3180.00
2019-04-29T06:23:30.498Z,3128.00
2019-04-29T06:24:30.502Z,3088.00
2019-04-29T06:25:30.466Z,3044.00
2019-04-29T06:26:30.481Z,3000.00
2019-04-29T06:27:33.265Z,2948.00
2019-04-29T06:28:30.435Z,2904.00
2019-04-29T06:29:30.424Z,2864.00
2019-04-29T06:30:30.498Z,2844.00
2019-04-29T06:31:30.403Z,2852.00
2019-04-29T06:32:30.402Z,2888.00
2019-04-29T06:33:31.023Z,2924.00
2019-04-29T06:34:30.375Z,2940.00
2019-04-29T06:35:30.356Z,2952.00
2019-04-29T06:36:30.363Z,2976.00
2019-04-29T06:37:30.334Z,2988.00
2019-04-29T06:38:30.338Z,2964.00
2019-04-29T06:39:30.306Z,2964.00
2019-04-29T06:40:34.954Z,2952.00
2019-04-29T06:41:30.307Z,2928.00
2019-04-29T06:42:33.316Z,2904.00
2019-04-29T06:43:30.727Z,2888.00
2019-04-29T06:44:30.250Z,2876.00
2019-04-29T06:45:30.242Z,2876.00
2019-04-29T06:46:30.235Z,2860.00
2019-04-29T06:47:30.214Z,2856.00
2019-04-29T06:48:30.226Z,2884.00
2019-04-29T06:49:30.215Z,2904.00
2019-04-29T06:50:30.186Z,2944.00
2019-04-29T06:51:30.172Z,2968.00
2019-04-29T06:52:30.178Z,2976.00
2019-04-29T06:53:30.154Z,2972.00
2019-04-29T06:54:30.174Z,2960.00
2019-04-29T06:55:30.123Z,2976.00
2019-04-29T06:56:30.124Z,2984.00
2019-04-29T06:57:30.103Z,2996.00
2019-04-29T06:58:32.592Z,3016.00
2019-04-29T06:59:31.082Z,3080.00
2019-04-29T07:00:30.070Z,3124.00
2019-04-29T07:01:33.180Z,3200.00
2019-04-29T07:02:31.046Z,3240.00
2019-04-29T07:03:30.038Z,3264.00
2019-04-29T07:04:30.642Z,3304.00
2019-04-29T07:05:31.030Z,3404.00
2019-04-29T07:06:30.004Z,3500.00
2019-04-29T07:07:29.998Z,3580.00
2019-04-29T07:08:29.986Z,3648.00
2019-04-29T07:09:29.983Z,3688.00
2019-04-29T07:10:29.986Z,3736.00
2019-04-29T07:11:31.913Z,3780.00
2019-04-29T07:12:30.934Z,3820.00
2019-04-29T07:13:29.926Z,3816.00
2019-04-29T07:14:33.353Z,3800.00
2019-04-29T07:15:30.918Z,3768.00
2019-04-29T07:16:32.095Z,3736.00
2019-04-29T07:17:29.882Z,3700.00
2019-04-29T07:18:29.868Z,3700.00
2019-04-29T07:19:29.854Z,3704.00
2019-04-29T07:20:32.566Z,3692.00
2019-04-29T07:21:30.850Z,3636.00
2019-04-29T07:22:31.211Z,3632.00
2019-04-29T07:23:29.810Z,3696.00
2019-04-29T07:24:29.819Z,3688.00
2019-04-29T07:25:30.333Z,3676.00
2019-04-29T07:26:29.776Z,3644.00
2019-04-29T07:27:29.778Z,3584.00
2019-04-29T07:28:29.978Z,3472.00
2019-04-29T07:29:32.158Z,3292.00
2019-04-29T07:30:29.755Z,3316.00
2019-04-29T07:31:33.407Z,3280.00
2019-04-29T07:32:32.406Z,3276.00
2019-04-29T07:33:29.702Z,3228.00
2019-04-29T07:34:33.785Z,3180.00
2019-04-29T07:35:30.670Z,3124.00
2019-04-29T07:36:29.666Z,3088.00
2019-04-29T07:37:33.697Z,3048.00
2019-04-29T07:38:40.721Z,3024.00
2019-04-29T07:39:31.824Z,3020.00
2019-04-29T07:40:29.629Z,3024.00
2019-04-29T07:41:29.611Z,3068.00
2019-04-29T07:42:32.325Z,3100.00
2019-04-29T07:43:29.587Z,3132.00
2019-04-29T07:44:43.148Z,3172.00
2019-04-29T07:45:43.288Z,3208.00
2019-04-29T07:46:30.551Z,3252.00
2019-04-29T07:47:31.089Z,3280.00
2019-04-29T07:48:29.530Z,3296.00
2019-04-29T07:49:29.515Z,3320.00
2019-04-29T07:50:29.574Z,3328.00
2019-04-29T07:51:29.514Z,3332.00
2019-04-29T07:52:29.490Z,3408.00
2019-04-29T07:53:35.211Z,3460.00
2019-04-29T07:54:30.462Z,3520.00
2019-04-29T07:55:30.787Z,3596.00
2019-04-29T07:56:29.442Z,3632.00
2019-04-29T07:57:29.431Z,3672.00
2019-04-29T07:58:29.466Z,3688.00
2019-04-29T07:59:29.406Z,3724.00
2019-04-29T08:00:29.398Z,3804.00
2019-04-29T08:01:29.394Z,3852.00
2019-04-29T08:02:29.374Z,3912.00
2019-04-29T08:03:29.359Z,3984.00
2019-04-29T08:04:29.347Z,4044.00
2019-04-29T08:05:29.386Z,4108.00
2019-04-29T08:06:29.322Z,4148.00
2019-04-29T08:07:29.327Z,4148.00
2019-04-29T08:08:29.302Z,4152.00
2019-04-29T08:09:29.290Z,4148.00
2019-04-29T08:10:29.928Z,4140.00
2019-04-29T08:11:29.271Z,4084.00
2019-04-29T08:12:29.265Z,4032.00
2019-04-29T08:13:29.274Z,4000.00
2019-04-29T08:14:29.262Z,3996.00
2019-04-29T08:15:31.910Z,4032.00
2019-04-29T08:16:29.211Z,4044.00
2019-04-29T08:17:29.198Z,4072.00
2019-04-29T08:18:29.254Z,4188.00
2019-04-29T08:19:31.353Z,4304.00
2019-04-29T08:20:29.166Z,4524.00
2019-04-29T08:21:29.222Z,4292.00
2019-04-29T08:22:29.359Z,4224.00
2019-04-29T08:23:32.590Z,4336.00
2019-04-29T08:24:30.122Z,4576.00
2019-04-29T08:25:29.106Z,4124.00
2019-04-29T08:26:29.126Z,4188.00
2019-04-29T08:27:39.813Z,4236.00
2019-04-29T08:28:30.079Z,4216.00
2019-04-29T08:29:30.818Z,4060.00
2019-04-29T08:30:30.057Z,4048.00
2019-04-29T08:31:29.090Z,4056.00
2019-04-29T08:32:31.570Z,4124.00
2019-04-29T08:33:30.019Z,4144.00
2019-04-29T08:34:29.142Z,4176.00
2019-04-29T08:35:32.686Z,4196.00
2019-04-29T08:36:29.986Z,3492.00
2019-04-29T08:37:28.990Z,3524.00
2019-04-29T08:38:28.982Z,4332.00
2019-04-29T08:39:29.664Z,4516.00
2019-04-29T08:40:28.950Z,4520.00
2019-04-29T08:41:29.989Z,4372.00
2019-04-29T08:42:28.922Z,4396.00
2019-04-29T08:43:28.922Z,4184.00
2019-04-29T08:44:28.898Z,4124.00
2019-04-29T08:45:28.882Z,4100.00
2019-04-29T08:46:28.878Z,4120.00
2019-04-29T08:47:31.652Z,4088.00
2019-04-29T08:48:28.871Z,4212.00
2019-04-29T08:49:28.850Z,4364.00
2019-04-29T08:50:28.826Z,4292.00
2019-04-29T08:51:28.817Z,3840.00
2019-04-29T08:52:28.818Z,4540.00
2019-04-29T08:53:28.798Z,4796.00
2019-04-29T08:54:28.790Z,5200.00
2019-04-29T08:55:31.405Z,5856.00
2019-04-29T08:56:29.790Z,6520.00
2019-04-29T08:57:31.724Z,7056.00
2019-04-29T08:58:29.738Z,7096.00
2019-04-29T08:59:28.734Z,6696.00
2019-04-29T09:00:28.762Z,6320.00
2019-04-29T09:01:29.175Z,6236.00
2019-04-29T09:02:35.117Z,6096.00
2019-04-29T09:03:40.059Z,5508.00
2019-04-29T09:04:33.338Z,5696.00
2019-04-29T09:05:28.670Z,5952.00
2019-04-29T09:06:32.677Z,6208.00
2019-04-29T09:07:29.638Z,6956.00
2019-04-29T09:08:32.509Z,6760.00
2019-04-29T09:09:29.621Z,7000.00
2019-04-29T09:10:28.606Z,7540.00
2019-04-29T09:11:28.590Z,7100.00
2019-04-29T09:12:29.332Z,7124.00
2019-04-29T09:13:28.571Z,6864.00
2019-04-29T09:14:28.558Z,6572.00
2019-04-29T09:15:28.570Z,6576.00
2019-04-29T09:16:28.534Z,6544.00
2019-04-29T09:17:28.522Z,6672.00
2019-04-29T09:18:28.514Z,6912.00
2019-04-29T09:19:28.498Z,7268.00
2019-04-29T09:20:28.491Z,7088.00
2019-04-29T09:21:28.507Z,7104.00
2019-04-29T09:22:28.462Z,6872.00
2019-04-29T09:23:28.538Z,6628.00
2019-04-29T09:24:28.446Z,6524.00
2019-04-29T09:25:28.435Z,6732.00
2019-04-29T09:26:28.422Z,6900.00
2019-04-29T09:27:28.506Z,7124.00
2019-04-29T09:28:29.904Z,7352.00
2019-04-29T09:29:28.386Z,7684.00
2019-04-29T09:30:28.379Z,8052.00
2019-04-29T09:31:28.370Z,8024.00
2019-04-29T09:32:28.406Z,8144.00
2019-04-29T09:33:28.354Z,8180.00
2019-04-29T09:34:28.330Z,7968.00
2019-04-29T09:35:28.932Z,7388.00
2019-04-29T09:36:28.938Z,7144.00
2019-04-29T09:37:28.327Z,7388.00
2019-04-29T09:38:28.299Z,7388.00
2019-04-29T09:39:41.937Z,7336.00
2019-04-29T09:40:29.262Z,7152.00
2019-04-29T09:41:30.502Z,6956.00
2019-04-29T09:42:31.016Z,7244.00
2019-04-29T09:43:28.227Z,7412.00
2019-04-29T09:44:28.238Z,7444.00
2019-04-29T09:45:28.218Z,7472.00
2019-04-29T09:46:29.946Z,7488.00
2019-04-29T09:47:29.210Z,7436.00
2019-04-29T09:48:28.170Z,7384.00
2019-04-29T09:49:28.178Z,7300.00
2019-04-29T09:50:28.530Z,7212.00
2019-04-29T09:51:29.783Z,7184.00
2019-04-29T09:52:28.126Z,7196.00
2019-04-29T09:53:28.130Z,7240.00
2019-04-29T09:54:28.107Z,7336.00
2019-04-29T09:55:28.093Z,7396.00
2019-04-29T09:56:28.082Z,7364.00
2019-04-29T09:57:28.156Z,7288.00
2019-04-29T09:58:28.091Z,7228.00
2019-04-29T09:59:28.050Z,7256.00
2019-04-29T10:00:28.034Z,7420.00
2019-04-29T10:01:28.026Z,7340.00
2019-04-29T10:02:31.374Z,7224.00
2019-04-29T10:03:28.006Z,7160.00
2019-04-29T10:04:28.003Z,7288.00
2019-04-29T10:05:27.978Z,7420.00
2019-04-29T10:06:27.969Z,7400.00
2019-04-29T10:07:27.959Z,7468.00
2019-04-29T10:08:27.950Z,7480.00
2019-04-29T10:09:27.946Z,7544.00
2019-04-29T10:10:27.966Z,7632.00
2019-04-29T10:11:27.914Z,7728.00
2019-04-29T10:12:27.903Z,7940.00
2019-04-29T10:13:27.890Z,8148.00
2019-04-29T10:14:27.941Z,8276.00
2019-04-29T10:15:27.862Z,8428.00
2019-04-29T10:16:31.746Z,8564.00
2019-04-29T10:17:28.842Z,8612.00
2019-04-29T10:18:29.777Z,8584.00
2019-04-29T10:19:27.866Z,8484.00
2019-04-29T10:20:27.834Z,8348.00
2019-04-29T10:21:27.798Z,8296.00
2019-04-29T10:22:27.786Z,8204.00
2019-04-29T10:23:27.774Z,8168.00
2019-04-29T10:24:27.766Z,8204.00
2019-04-29T10:25:27.759Z,8308.00
2019-04-29T10:26:27.750Z,8356.00
2019-04-29T10:27:27.738Z,8368.00
2019-04-29T10:28:27.722Z,8424.00
2019-04-29T10:29:27.711Z,8428.00
2019-04-29T10:30:31.110Z,8568.00
2019-04-29T10:31:27.714Z,8684.00
2019-04-29T10:32:27.673Z,8600.00
2019-04-29T10:33:27.718Z,8364.00
2019-04-29T10:34:31.524Z,8140.00
2019-04-29T10:35:28.646Z,8144.00
2019-04-29T10:36:27.642Z,7988.00
2019-04-29T10:37:31.498Z,7944.00
2019-04-29T10:38:28.606Z,8044.00
2019-04-29T10:39:27.610Z,8268.00
2019-04-29T10:40:27.582Z,8448.00
2019-04-29T10:41:27.573Z,8440.00
2019-04-29T10:42:27.575Z,8560.00
2019-04-29T10:43:27.550Z,8528.00
2019-04-29T10:44:27.554Z,8456.00
2019-04-29T10:45:27.522Z,8236.00
2019-04-29T10:46:27.531Z,8088.00
2019-04-29T10:47:27.518Z,8252.00
2019-04-29T10:48:27.518Z,8384.00
2019-04-29T10:49:27.485Z,8524.00
2019-04-29T10:50:27.469Z,8652.00
2019-04-29T10:51:28.520Z,8588.00
2019-04-29T10:52:27.469Z,8536.00
2019-04-29T10:53:28.961Z,8524.00
2019-04-29T10:54:27.431Z,8472.00
2019-04-29T10:55:30.009Z,8432.00
2019-04-29T10:56:27.413Z,8380.00
2019-04-29T10:57:29.283Z,8344.00
2019-04-29T10:58:31.156Z,8372.00
2019-04-29T10:59:35.673Z,8328.00
2019-04-29T11:00:28.358Z,8408.00
2019-04-29T11:01:29.220Z,8464.00
2019-04-29T11:02:27.353Z,8456.00
2019-04-29T11:03:27.317Z,8576.00
2019-04-29T11:04:27.327Z,8636.00
2019-04-29T11:05:27.297Z,8860.00
2019-04-29T11:06:31.499Z,8824.00
2019-04-29T11:07:28.310Z,8852.00
2019-04-29T11:08:27.266Z,8616.00
2019-04-29T11:09:27.273Z,8552.00
2019-04-29T11:10:27.269Z,8332.00
2019-04-29T11:11:27.397Z,8240.00
2019-04-29T11:12:27.222Z,8344.00
2019-04-29T11:13:27.210Z,8444.00
2019-04-29T11:14:27.198Z,8680.00
2019-04-29T11:15:30.566Z,8844.00
2019-04-29T11:16:45.334Z,8972.00
2019-04-29T11:17:28.244Z,8904.00
2019-04-29T11:18:27.158Z,8828.00
2019-04-29T11:19:27.149Z,8488.00
2019-04-29T11:20:27.162Z,8704.00
2019-04-29T11:21:29.388Z,8444.00
2019-04-29T11:22:27.122Z,8540.00
2019-04-29T11:23:27.107Z,8848.00
2019-04-29T11:24:27.086Z,8756.00
2019-04-29T11:25:27.070Z,8876.00
2019-04-29T11:26:27.102Z,8684.00
2019-04-29T11:27:27.057Z,8388.00
2019-04-29T11:28:27.054Z,8172.00
2019-04-29T11:29:28.994Z,8428.00
2019-04-29T11:30:27.018Z,8156.00
2019-04-29T11:31:27.018Z,9156.00
2019-04-29T11:32:29.298Z,9476.00
2019-04-29T11:33:26.977Z,8680.00
2019-04-29T11:34:26.989Z,9016.00
2019-04-29T11:35:28.497Z,9820.00
2019-04-29T11:36:26.955Z,9328.00
2019-04-29T11:37:26.941Z,9268.00
2019-04-29T11:38:28.517Z,8724.00
2019-04-29T11:39:27.933Z,9940.00
2019-04-29T11:40:42.735Z,9824.00
2019-04-29T11:41:27.905Z,10040.00
2019-04-29T11:42:26.889Z,9684.00
2019-04-29T11:43:26.865Z,9820.00
2019-04-29T11:44:27.884Z,9820.00
2019-04-29T11:45:26.854Z,9132.00
2019-04-29T11:46:26.838Z,8984.00
2019-04-29T11:47:26.843Z,9264.00
2019-04-29T11:48:26.809Z,10052.00
2019-04-29T11:49:26.805Z,10248.00
2019-04-29T11:50:27.136Z,10748.00
2019-04-29T11:51:26.794Z,10828.00
2019-04-29T11:52:28.051Z,10584.00
2019-04-29T11:53:26.773Z,10352.00
2019-04-29T11:54:26.745Z,9804.00
2019-04-29T11:55:26.733Z,9504.00
2019-04-29T11:56:26.721Z,9176.00
2019-04-29T11:57:40.125Z,9064.00
2019-04-29T11:58:27.721Z,9360.00
2019-04-29T11:59:26.797Z,9380.00
2019-04-29T12:00:26.673Z,9292.00
2019-04-29T12:01:37.847Z,9272.00
2019-04-29T12:02:44.831Z,9240.00
2019-04-29T12:03:27.662Z,9136.00
2019-04-29T12:04:28.674Z,9024.00
2019-04-29T12:05:27.632Z,9140.00
2019-04-29T12:06:26.610Z,9688.00
2019-04-29T12:07:32.054Z,10116.00
2019-04-29T12:08:27.606Z,10432.00
2019-04-29T12:09:30.506Z,10352.00
2019-04-29T12:10:27.565Z,9928.00
2019-04-29T12:11:28.652Z,9376.00
2019-04-29T12:12:27.545Z,9200.00
2019-04-29T12:13:28.377Z,9220.00
2019-04-29T12:14:26.537Z,9204.00
2019-04-29T12:15:26.541Z,9048.00
2019-04-29T12:16:26.514Z,9112.00
2019-04-29T12:17:26.485Z,9236.00
2019-04-29T12:18:26.477Z,9188.00
2019-04-29T12:19:26.477Z,9344.00
2019-04-29T12:20:26.457Z,9508.00
2019-04-29T12:21:26.471Z,9460.00
2019-04-29T12:22:30.685Z,9120.00
2019-04-29T12:23:26.458Z,8972.00
2019-04-29T12:24:26.417Z,9108.00
2019-04-29T12:25:27.379Z,9340.00
2019-04-29T12:26:26.381Z,9460.00
2019-04-29T12:27:29.068Z,9948.00
2019-04-29T12:28:26.996Z,11220.00